sensor_id;sensor_type;location;lat;lon;timestamp;P1;durP1;ratioP1;P2;durP2;ratioP2
78648;SDS011;67962;47.310;9.642;2024-03-22T00:01:49;3.65;;;1.38;;
78648;SDS011;67962;47.310;9.642;2024-03-22T00:04:15;2.63;;;1.40;;
78648;SDS011;67962;47.310;9.642;2024-03-22T00:06:42;3.58;;;1.50;;
78648;SDS011;67962;47.310;9.642;2024-03-22T00:09:09;6.47;;;1.73;;
78648;SDS011;67962;47.310;9.642;2024-03-22T00:11:35;3.95;;;1.70;;
78648;SDS011;67962;47.310;9.642;2024-03-22T00:14:01;4.85;;;1.30;;
78648;SDS011;67962;47.310;9.642;2024-03-22T00:16:28;4.43;;;1.30;;
78648;SDS011;67962;47.310;9.642;2024-03-22T00:18:53;3.42;;;1.38;;
78648;SDS011;67962;47.310;9.642;2024-03-22T00:21:21;2.72;;;1.63;;
78648;SDS011;67962;47.310;9.642;2024-03-22T00:23:47;1.90;;;1.30;;
78648;SDS011;67962;47.310;9.642;2024-03-22T00:26:12;4.20;;;1.50;;
78648;SDS011;67962;47.310;9.642;2024-03-22T00:28:38;6.05;;;1.60;;
78648;SDS011;67962;47.310;9.642;2024-03-22T00:31:04;4.80;;;1.50;;
78648;SDS011;67962;47.310;9.642;2024-03-22T00:33:30;4.15;;;1.60;;
78648;SDS011;67962;47.310;9.642;2024-03-22T00:35:56;3.85;;;1.60;;
78648;SDS011;67962;47.310;9.642;2024-03-22T00:38:22;2.60;;;1.55;;
78648;SDS011;67962;47.310;9.642;2024-03-22T00:40:48;3.10;;;1.33;;
78648;SDS011;67962;47.310;9.642;2024-03-22T00:43:14;6.07;;;1.50;;
78648;SDS011;67962;47.310;9.642;2024-03-22T00:45:39;4.28;;;1.60;;
78648;SDS011;67962;47.310;9.642;2024-03-22T00:48:05;2.35;;;1.35;;
78648;SDS011;67962;47.310;9.642;2024-03-22T00:50:31;4.53;;;1.40;;
78648;SDS011;67962;47.310;9.642;2024-03-22T00:52:57;1.80;;;1.40;;
78648;SDS011;67962;47.310;9.642;2024-03-22T00:55:22;6.72;;;1.35;;
78648;SDS011;67962;47.310;9.642;2024-03-22T00:57:48;2.08;;;1.08;;
78648;SDS011;67962;47.310;9.642;2024-03-22T01:00:15;6.50;;;1.98;;
78648;SDS011;67962;47.310;9.642;2024-03-22T01:02:41;3.78;;;1.30;;
78648;SDS011;67962;47.310;9.642;2024-03-22T01:05:07;2.72;;;1.23;;
78648;SDS011;67962;47.310;9.642;2024-03-22T01:07:33;5.32;;;1.50;;
78648;SDS011;67962;47.310;9.642;2024-03-22T01:09:58;2.70;;;1.20;;
78648;SDS011;67962;47.310;9.642;2024-03-22T01:12:24;4.25;;;1.60;;
78648;SDS011;67962;47.310;9.642;2024-03-22T01:14:50;2.45;;;1.40;;
78648;SDS011;67962;47.310;9.642;2024-03-22T01:17:16;3.55;;;1.38;;
78648;SDS011;67962;47.310;9.642;2024-03-22T01:19:42;2.20;;;1.50;;
78648;SDS011;67962;47.310;9.642;2024-03-22T01:22:08;4.55;;;1.60;;
78648;SDS011;67962;47.310;9.642;2024-03-22T01:24:33;6.90;;;1.60;;
78648;SDS011;67962;47.310;9.642;2024-03-22T01:26:59;4.32;;;1.23;;
78648;SDS011;67962;47.310;9.642;2024-03-22T01:29:25;2.17;;;1.25;;
78648;SDS011;67962;47.310;9.642;2024-03-22T01:31:52;2.70;;;1.40;;
78648;SDS011;67962;47.310;9.642;2024-03-22T01:34:18;4.55;;;1.42;;
78648;SDS011;67962;47.310;9.642;2024-03-22T01:36:43;5.80;;;1.80;;
78648;SDS011;67962;47.310;9.642;2024-03-22T01:39:09;3.90;;;1.30;;
78648;SDS011;67962;47.310;9.642;2024-03-22T01:41:35;2.47;;;1.40;;
78648;SDS011;67962;47.310;9.642;2024-03-22T01:44:00;2.80;;;1.40;;
78648;SDS011;67962;47.310;9.642;2024-03-22T01:46:26;2.83;;;1.50;;
78648;SDS011;67962;47.310;9.642;2024-03-22T01:48:51;3.83;;;1.40;;
78648;SDS011;67962;47.310;9.642;2024-03-22T01:51:18;3.35;;;1.50;;
78648;SDS011;67962;47.310;9.642;2024-03-22T01:53:43;2.85;;;1.48;;
78648;SDS011;67962;47.310;9.642;2024-03-22T01:56:09;6.65;;;1.50;;
78648;SDS011;67962;47.310;9.642;2024-03-22T01:58:36;3.78;;;1.50;;
78648;SDS011;67962;47.310;9.642;2024-03-22T02:01:01;3.33;;;1.42;;
78648;SDS011;67962;47.310;9.642;2024-03-22T02:03:27;4.15;;;1.60;;
78648;SDS011;67962;47.310;9.642;2024-03-22T02:05:53;2.28;;;1.60;;
78648;SDS011;67962;47.310;9.642;2024-03-22T02:08:19;5.47;;;1.50;;
78648;SDS011;67962;47.310;9.642;2024-03-22T02:10:44;2.60;;;1.38;;
78648;SDS011;67962;47.310;9.642;2024-03-22T02:13:10;4.03;;;1.88;;
78648;SDS011;67962;47.310;9.642;2024-03-22T02:15:36;3.15;;;1.30;;
78648;SDS011;67962;47.310;9.642;2024-03-22T02:18:01;2.70;;;1.60;;
78648;SDS011;67962;47.310;9.642;2024-03-22T02:20:27;3.40;;;1.40;;
78648;SDS011;67962;47.310;9.642;2024-03-22T02:22:53;3.25;;;1.55;;
78648;SDS011;67962;47.310;9.642;2024-03-22T02:25:18;2.63;;;1.45;;
78648;SDS011;67962;47.310;9.642;2024-03-22T02:27:44;2.55;;;1.58;;
78648;SDS011;67962;47.310;9.642;2024-03-22T02:30:10;2.47;;;1.33;;
78648;SDS011;67962;47.310;9.642;2024-03-22T02:32:36;3.67;;;1.48;;
78648;SDS011;67962;47.310;9.642;2024-03-22T02:35:03;2.25;;;1.40;;
78648;SDS011;67962;47.310;9.642;2024-03-22T02:37:29;3.00;;;1.35;;
78648;SDS011;67962;47.310;9.642;2024-03-22T02:39:55;3.33;;;1.88;;
78648;SDS011;67962;47.310;9.642;2024-03-22T02:42:20;3.25;;;1.40;;
78648;SDS011;67962;47.310;9.642;2024-03-22T02:44:46;2.90;;;1.42;;
78648;SDS011;67962;47.310;9.642;2024-03-22T02:47:11;2.25;;;1.30;;
78648;SDS011;67962;47.310;9.642;2024-03-22T02:49:39;2.83;;;1.17;;
78648;SDS011;67962;47.310;9.642;2024-03-22T02:52:05;3.95;;;1.40;;
78648;SDS011;67962;47.310;9.642;2024-03-22T02:54:31;2.80;;;1.63;;
78648;SDS011;67962;47.310;9.642;2024-03-22T02:56:56;2.97;;;1.50;;
78648;SDS011;67962;47.310;9.642;2024-03-22T02:59:25;6.78;;;1.70;;
78648;SDS011;67962;47.310;9.642;2024-03-22T03:01:51;6.00;;;1.40;;
78648;SDS011;67962;47.310;9.642;2024-03-22T03:04:17;5.03;;;1.70;;
78648;SDS011;67962;47.310;9.642;2024-03-22T03:06:43;4.97;;;1.70;;
78648;SDS011;67962;47.310;9.642;2024-03-22T03:09:10;4.93;;;1.63;;
78648;SDS011;67962;47.310;9.642;2024-03-22T03:11:38;8.07;;;1.60;;
78648;SDS011;67962;47.310;9.642;2024-03-22T03:14:04;6.25;;;1.70;;
78648;SDS011;67962;47.310;9.642;2024-03-22T03:16:30;4.57;;;1.58;;
78648;SDS011;67962;47.310;9.642;2024-03-22T03:18:55;4.10;;;1.60;;
78648;SDS011;67962;47.310;9.642;2024-03-22T03:21:21;3.60;;;1.83;;
78648;SDS011;67962;47.310;9.642;2024-03-22T03:23:46;4.43;;;1.55;;
78648;SDS011;67962;47.310;9.642;2024-03-22T03:26:12;3.42;;;1.75;;
78648;SDS011;67962;47.310;9.642;2024-03-22T03:28:38;5.35;;;1.70;;
78648;SDS011;67962;47.310;9.642;2024-03-22T03:31:03;2.10;;;1.38;;
78648;SDS011;67962;47.310;9.642;2024-03-22T03:33:29;5.32;;;1.60;;
78648;SDS011;67962;47.310;9.642;2024-03-22T03:35:55;5.20;;;1.70;;
78648;SDS011;67962;47.310;9.642;2024-03-22T03:38:21;3.22;;;1.55;;
78648;SDS011;67962;47.310;9.642;2024-03-22T03:40:47;5.57;;;1.77;;
78648;SDS011;67962;47.310;9.642;2024-03-22T03:43:13;7.18;;;1.80;;
78648;SDS011;67962;47.310;9.642;2024-03-22T03:45:39;2.55;;;1.58;;
78648;SDS011;67962;47.310;9.642;2024-03-22T03:48:05;5.20;;;1.60;;
78648;SDS011;67962;47.310;9.642;2024-03-22T03:50:31;4.22;;;2.00;;
78648;SDS011;67962;47.310;9.642;2024-03-22T03:52:56;4.13;;;1.70;;
78648;SDS011;67962;47.310;9.642;2024-03-22T03:55:22;4.72;;;1.52;;
78648;SDS011;67962;47.310;9.642;2024-03-22T03:57:51;2.75;;;1.80;;
78648;SDS011;67962;47.310;9.642;2024-03-22T04:00:19;2.28;;;1.48;;
78648;SDS011;67962;47.310;9.642;2024-03-22T04:02:45;3.88;;;1.55;;
78648;SDS011;67962;47.310;9.642;2024-03-22T04:05:10;2.63;;;1.60;;
78648;SDS011;67962;47.310;9.642;2024-03-22T04:07:36;2.33;;;1.63;;
78648;SDS011;67962;47.310;9.642;2024-03-22T04:10:02;6.70;;;1.60;;
78648;SDS011;67962;47.310;9.642;2024-03-22T04:12:28;4.60;;;1.45;;
78648;SDS011;67962;47.310;9.642;2024-03-22T04:14:54;3.47;;;1.67;;
78648;SDS011;67962;47.310;9.642;2024-03-22T04:17:19;3.63;;;1.65;;
78648;SDS011;67962;47.310;9.642;2024-03-22T04:19:45;3.63;;;1.35;;
78648;SDS011;67962;47.310;9.642;2024-03-22T04:22:11;2.83;;;1.40;;
78648;SDS011;67962;47.310;9.642;2024-03-22T04:24:37;2.22;;;1.60;;
78648;SDS011;67962;47.310;9.642;2024-03-22T04:27:02;4.75;;;1.83;;
78648;SDS011;67962;47.310;9.642;2024-03-22T04:29:29;8.20;;;1.52;;
78648;SDS011;67962;47.310;9.642;2024-03-22T04:31:55;3.70;;;1.48;;
78648;SDS011;67962;47.310;9.642;2024-03-22T04:34:21;4.18;;;1.60;;
78648;SDS011;67962;47.310;9.642;2024-03-22T04:36:46;2.50;;;1.48;;
78648;SDS011;67962;47.310;9.642;2024-03-22T04:39:12;2.45;;;1.40;;
78648;SDS011;67962;47.310;9.642;2024-03-22T04:41:38;7.82;;;1.85;;
78648;SDS011;67962;47.310;9.642;2024-03-22T04:44:04;2.67;;;1.30;;
78648;SDS011;67962;47.310;9.642;2024-03-22T04:46:30;4.22;;;1.40;;
78648;SDS011;67962;47.310;9.642;2024-03-22T04:48:55;4.80;;;1.92;;
78648;SDS011;67962;47.310;9.642;2024-03-22T04:51:21;2.63;;;1.63;;
78648;SDS011;67962;47.310;9.642;2024-03-22T04:53:47;3.35;;;1.80;;
78648;SDS011;67962;47.310;9.642;2024-03-22T04:56:12;2.85;;;1.42;;
78648;SDS011;67962;47.310;9.642;2024-03-22T04:58:38;3.15;;;1.80;;
78648;SDS011;67962;47.310;9.642;2024-03-22T05:01:04;2.78;;;1.58;;
78648;SDS011;67962;47.310;9.642;2024-03-22T05:03:29;3.17;;;1.50;;
78648;SDS011;67962;47.310;9.642;2024-03-22T05:05:56;2.50;;;1.50;;
78648;SDS011;67962;47.310;9.642;2024-03-22T05:08:22;4.88;;;1.70;;
78648;SDS011;67962;47.310;9.642;2024-03-22T05:10:48;3.42;;;1.77;;
78648;SDS011;67962;47.310;9.642;2024-03-22T05:13:13;4.82;;;1.85;;
78648;SDS011;67962;47.310;9.642;2024-03-22T05:15:39;6.78;;;1.67;;
78648;SDS011;67962;47.310;9.642;2024-03-22T05:18:05;2.88;;;1.80;;
78648;SDS011;67962;47.310;9.642;2024-03-22T05:20:31;3.15;;;1.75;;
78648;SDS011;67962;47.310;9.642;2024-03-22T05:22:57;4.55;;;1.83;;
78648;SDS011;67962;47.310;9.642;2024-03-22T05:25:22;2.97;;;1.67;;
78648;SDS011;67962;47.310;9.642;2024-03-22T05:27:48;2.55;;;1.80;;
78648;SDS011;67962;47.310;9.642;2024-03-22T05:30:14;2.78;;;1.50;;
78648;SDS011;67962;47.310;9.642;2024-03-22T05:32:42;3.40;;;2.00;;
78648;SDS011;67962;47.310;9.642;2024-03-22T05:35:08;2.70;;;1.60;;
78648;SDS011;67962;47.310;9.642;2024-03-22T05:37:34;3.13;;;1.60;;
78648;SDS011;67962;47.310;9.642;2024-03-22T05:40:00;3.72;;;1.83;;
78648;SDS011;67962;47.310;9.642;2024-03-22T05:42:26;3.92;;;1.95;;
78648;SDS011;67962;47.310;9.642;2024-03-22T05:44:52;2.85;;;1.35;;
78648;SDS011;67962;47.310;9.642;2024-03-22T05:47:18;4.63;;;1.40;;
78648;SDS011;67962;47.310;9.642;2024-03-22T05:49:44;3.25;;;1.73;;
78648;SDS011;67962;47.310;9.642;2024-03-22T05:52:10;4.97;;;2.15;;
78648;SDS011;67962;47.310;9.642;2024-03-22T05:54:37;4.03;;;2.03;;
78648;SDS011;67962;47.310;9.642;2024-03-22T05:57:02;5.63;;;2.20;;
78648;SDS011;67962;47.310;9.642;2024-03-22T05:59:30;2.92;;;1.70;;
78648;SDS011;67962;47.310;9.642;2024-03-22T06:01:56;4.07;;;1.50;;
78648;SDS011;67962;47.310;9.642;2024-03-22T06:04:21;4.13;;;1.83;;
78648;SDS011;67962;47.310;9.642;2024-03-22T06:06:48;2.42;;;2.00;;
78648;SDS011;67962;47.310;9.642;2024-03-22T06:09:14;3.80;;;1.92;;
78648;SDS011;67962;47.310;9.642;2024-03-22T06:11:48;5.18;;;1.45;;
78648;SDS011;67962;47.310;9.642;2024-03-22T06:14:17;2.22;;;1.63;;
78648;SDS011;67962;47.310;9.642;2024-03-22T06:16:43;3.85;;;1.70;;
78648;SDS011;67962;47.310;9.642;2024-03-22T06:19:09;6.43;;;1.90;;
78648;SDS011;67962;47.310;9.642;2024-03-22T06:21:34;3.08;;;1.75;;
78648;SDS011;67962;47.310;9.642;2024-03-22T06:24:00;4.15;;;1.65;;
78648;SDS011;67962;47.310;9.642;2024-03-22T06:26:26;3.65;;;1.80;;
78648;SDS011;67962;47.310;9.642;2024-03-22T06:28:52;4.65;;;1.80;;
78648;SDS011;67962;47.310;9.642;2024-03-22T06:31:17;7.03;;;2.10;;
78648;SDS011;67962;47.310;9.642;2024-03-22T06:33:43;8.10;;;1.83;;
78648;SDS011;67962;47.310;9.642;2024-03-22T06:36:08;5.60;;;1.90;;
78648;SDS011;67962;47.310;9.642;2024-03-22T06:38:34;3.20;;;2.20;;
78648;SDS011;67962;47.310;9.642;2024-03-22T06:41:00;5.97;;;2.33;;
78648;SDS011;67962;47.310;9.642;2024-03-22T06:43:25;5.38;;;2.85;;
78648;SDS011;67962;47.310;9.642;2024-03-22T06:45:51;5.13;;;2.85;;
78648;SDS011;67962;47.310;9.642;2024-03-22T06:48:16;3.70;;;2.00;;
78648;SDS011;67962;47.310;9.642;2024-03-22T06:50:42;3.13;;;1.90;;
78648;SDS011;67962;47.310;9.642;2024-03-22T06:53:08;3.75;;;2.17;;
78648;SDS011;67962;47.310;9.642;2024-03-22T06:55:36;4.70;;;2.35;;
78648;SDS011;67962;47.310;9.642;2024-03-22T06:58:02;3.42;;;2.17;;
78648;SDS011;67962;47.310;9.642;2024-03-22T07:00:28;4.03;;;2.10;;
78648;SDS011;67962;47.310;9.642;2024-03-22T07:02:53;6.65;;;2.40;;
78648;SDS011;67962;47.310;9.642;2024-03-22T07:05:20;6.35;;;2.53;;
78648;SDS011;67962;47.310;9.642;2024-03-22T07:07:47;5.43;;;2.03;;
78648;SDS011;67962;47.310;9.642;2024-03-22T07:10:12;4.53;;;2.28;;
78648;SDS011;67962;47.310;9.642;2024-03-22T07:12:38;3.15;;;1.67;;
78648;SDS011;67962;47.310;9.642;2024-03-22T07:15:04;3.85;;;1.70;;
78648;SDS011;67962;47.310;9.642;2024-03-22T07:17:30;3.15;;;1.63;;
78648;SDS011;67962;47.310;9.642;2024-03-22T07:19:56;4.75;;;2.08;;
78648;SDS011;67962;47.310;9.642;2024-03-22T07:22:22;4.53;;;1.80;;
78648;SDS011;67962;47.310;9.642;2024-03-22T07:24:48;3.97;;;1.80;;
78648;SDS011;67962;47.310;9.642;2024-03-22T07:27:14;4.50;;;2.00;;
78648;SDS011;67962;47.310;9.642;2024-03-22T07:29:40;6.80;;;1.70;;
78648;SDS011;67962;47.310;9.642;2024-03-22T07:32:06;3.72;;;1.30;;
78648;SDS011;67962;47.310;9.642;2024-03-22T07:34:32;1.98;;;1.48;;
78648;SDS011;67962;47.310;9.642;2024-03-22T07:36:57;5.88;;;1.55;;
78648;SDS011;67962;47.310;9.642;2024-03-22T07:39:23;5.75;;;2.08;;
78648;SDS011;67962;47.310;9.642;2024-03-22T07:41:49;3.33;;;1.20;;
78648;SDS011;67962;47.310;9.642;2024-03-22T07:44:15;4.63;;;1.27;;
78648;SDS011;67962;47.310;9.642;2024-03-22T07:46:43;2.83;;;1.20;;
78648;SDS011;67962;47.310;9.642;2024-03-22T07:49:10;2.88;;;1.13;;
78648;SDS011;67962;47.310;9.642;2024-03-22T07:51:37;2.72;;;1.45;;
78648;SDS011;67962;47.310;9.642;2024-03-22T07:54:03;2.40;;;1.17;;
78648;SDS011;67962;47.310;9.642;2024-03-22T07:56:28;3.03;;;1.10;;
78648;SDS011;67962;47.310;9.642;2024-03-22T07:58:54;1.95;;;1.38;;
78648;SDS011;67962;47.310;9.642;2024-03-22T08:01:20;2.03;;;1.30;;
78648;SDS011;67962;47.310;9.642;2024-03-22T08:03:46;2.42;;;1.30;;
78648;SDS011;67962;47.310;9.642;2024-03-22T08:06:12;2.92;;;1.35;;
78648;SDS011;67962;47.310;9.642;2024-03-22T08:08:37;4.43;;;1.40;;
78648;SDS011;67962;47.310;9.642;2024-03-22T08:11:03;2.47;;;1.20;;
78648;SDS011;67962;47.310;9.642;2024-03-22T08:13:29;4.75;;;1.20;;
78648;SDS011;67962;47.310;9.642;2024-03-22T08:15:55;7.07;;;1.48;;
78648;SDS011;67962;47.310;9.642;2024-03-22T08:18:20;2.50;;;1.10;;
78648;SDS011;67962;47.310;9.642;2024-03-22T08:20:46;1.85;;;1.10;;
78648;SDS011;67962;47.310;9.642;2024-03-22T08:23:11;2.67;;;1.27;;
78648;SDS011;67962;47.310;9.642;2024-03-22T08:25:37;1.40;;;1.10;;
78648;SDS011;67962;47.310;9.642;2024-03-22T08:28:03;2.42;;;1.20;;
78648;SDS011;67962;47.310;9.642;2024-03-22T08:30:29;1.70;;;1.02;;
78648;SDS011;67962;47.310;9.642;2024-03-22T08:32:55;5.55;;;1.42;;
78648;SDS011;67962;47.310;9.642;2024-03-22T08:35:20;2.42;;;1.05;;
78648;SDS011;67962;47.310;9.642;2024-03-22T08:37:46;2.95;;;1.10;;
78648;SDS011;67962;47.310;9.642;2024-03-22T08:40:12;2.88;;;1.25;;
78648;SDS011;67962;47.310;9.642;2024-03-22T08:42:39;2.38;;;1.30;;
78648;SDS011;67962;47.310;9.642;2024-03-22T08:45:05;3.38;;;1.25;;
78648;SDS011;67962;47.310;9.642;2024-03-22T08:47:31;5.88;;;1.23;;
78648;SDS011;67962;47.310;9.642;2024-03-22T08:49:58;5.53;;;1.17;;
78648;SDS011;67962;47.310;9.642;2024-03-22T08:52:24;4.07;;;1.30;;
78648;SDS011;67962;47.310;9.642;2024-03-22T08:54:50;3.25;;;1.27;;
78648;SDS011;67962;47.310;9.642;2024-03-22T08:57:17;3.00;;;1.02;;
78648;SDS011;67962;47.310;9.642;2024-03-22T08:59:43;2.17;;;1.20;;
78648;SDS011;67962;47.310;9.642;2024-03-22T09:02:09;2.70;;;1.20;;
78648;SDS011;67962;47.310;9.642;2024-03-22T09:04:34;3.20;;;1.40;;
78648;SDS011;67962;47.310;9.642;2024-03-22T09:07:00;4.00;;;1.27;;
78648;SDS011;67962;47.310;9.642;2024-03-22T09:09:26;4.10;;;1.63;;
78648;SDS011;67962;47.310;9.642;2024-03-22T09:11:51;8.00;;;1.48;;
78648;SDS011;67962;47.310;9.642;2024-03-22T09:14:17;1.83;;;1.10;;
78648;SDS011;67962;47.310;9.642;2024-03-22T09:16:43;2.25;;;1.05;;
78648;SDS011;67962;47.310;9.642;2024-03-22T09:19:08;3.10;;;1.27;;
78648;SDS011;67962;47.310;9.642;2024-03-22T09:21:36;4.95;;;1.38;;
78648;SDS011;67962;47.310;9.642;2024-03-22T09:24:01;5.50;;;1.10;;
78648;SDS011;67962;47.310;9.642;2024-03-22T09:26:31;1.70;;;1.00;;
78648;SDS011;67962;47.310;9.642;2024-03-22T09:28:57;3.03;;;1.30;;
78648;SDS011;67962;47.310;9.642;2024-03-22T09:31:23;4.43;;;1.08;;
78648;SDS011;67962;47.310;9.642;2024-03-22T09:33:49;2.83;;;1.50;;
78648;SDS011;67962;47.310;9.642;2024-03-22T09:36:14;2.83;;;1.20;;
78648;SDS011;67962;47.310;9.642;2024-03-22T09:38:40;1.65;;;1.30;;
78648;SDS011;67962;47.310;9.642;2024-03-22T09:41:06;4.47;;;1.40;;
78648;SDS011;67962;47.310;9.642;2024-03-22T09:43:32;5.25;;;1.38;;
78648;SDS011;67962;47.310;9.642;2024-03-22T09:45:59;3.33;;;1.13;;
78648;SDS011;67962;47.310;9.642;2024-03-22T09:48:26;3.30;;;1.10;;
78648;SDS011;67962;47.310;9.642;2024-03-22T09:50:54;4.88;;;1.00;;
78648;SDS011;67962;47.310;9.642;2024-03-22T09:53:20;4.78;;;1.40;;
78648;SDS011;67962;47.310;9.642;2024-03-22T09:55:47;2.53;;;1.17;;
78648;SDS011;67962;47.310;9.642;2024-03-22T09:58:14;2.45;;;1.25;;
78648;SDS011;67962;47.310;9.642;2024-03-22T10:00:43;2.58;;;1.30;;
78648;SDS011;67962;47.310;9.642;2024-03-22T10:03:12;3.92;;;1.10;;
78648;SDS011;67962;47.310;9.642;2024-03-22T10:05:38;2.80;;;1.30;;
78648;SDS011;67962;47.310;9.642;2024-03-22T10:08:04;2.72;;;1.10;;
78648;SDS011;67962;47.310;9.642;2024-03-22T10:10:32;2.83;;;1.23;;
78648;SDS011;67962;47.310;9.642;2024-03-22T10:13:02;3.90;;;1.33;;
78648;SDS011;67962;47.310;9.642;2024-03-22T10:15:29;2.03;;;1.10;;
78648;SDS011;67962;47.310;9.642;2024-03-22T10:17:56;4.45;;;1.15;;
78648;SDS011;67962;47.310;9.642;2024-03-22T10:20:22;5.78;;;1.20;;
78648;SDS011;67962;47.310;9.642;2024-03-22T10:22:48;3.03;;;1.13;;
78648;SDS011;67962;47.310;9.642;2024-03-22T10:25:20;2.47;;;1.17;;
78648;SDS011;67962;47.310;9.642;2024-03-22T10:27:46;5.05;;;1.70;;
78648;SDS011;67962;47.310;9.642;2024-03-22T10:30:14;1.73;;;0.90;;
78648;SDS011;67962;47.310;9.642;2024-03-22T10:32:41;4.68;;;1.15;;
78648;SDS011;67962;47.310;9.642;2024-03-22T10:35:07;3.58;;;1.10;;
78648;SDS011;67962;47.310;9.642;2024-03-22T10:37:36;2.78;;;1.08;;
78648;SDS011;67962;47.310;9.642;2024-03-22T10:40:02;3.88;;;1.10;;
78648;SDS011;67962;47.310;9.642;2024-03-22T10:42:33;1.83;;;1.10;;
78648;SDS011;67962;47.310;9.642;2024-03-22T10:45:08;3.10;;;1.20;;
78648;SDS011;67962;47.310;9.642;2024-03-22T10:47:36;3.78;;;1.10;;
78648;SDS011;67962;47.310;9.642;2024-03-22T10:50:08;2.55;;;1.10;;
78648;SDS011;67962;47.310;9.642;2024-03-22T10:52:52;3.63;;;1.20;;
78648;SDS011;67962;47.310;9.642;2024-03-22T10:57:54;2.97;;;1.23;;
78648;SDS011;67962;47.310;9.642;2024-03-22T11:02:55;3.03;;;0.95;;
78648;SDS011;67962;47.310;9.642;2024-03-22T11:05:21;3.10;;;1.10;;
78648;SDS011;67962;47.310;9.642;2024-03-22T11:07:47;6.32;;;1.20;;
78648;SDS011;67962;47.310;9.642;2024-03-22T11:10:13;2.78;;;1.30;;
78648;SDS011;67962;47.310;9.642;2024-03-22T11:12:40;2.00;;;0.88;;
78648;SDS011;67962;47.310;9.642;2024-03-22T11:15:06;2.10;;;0.70;;
78648;SDS011;67962;47.310;9.642;2024-03-22T11:17:33;2.58;;;1.00;;
78648;SDS011;67962;47.310;9.642;2024-03-22T11:19:58;3.15;;;1.10;;
78648;SDS011;67962;47.310;9.642;2024-03-22T11:22:27;2.30;;;1.08;;
78648;SDS011;67962;47.310;9.642;2024-03-22T11:24:53;3.92;;;0.95;;
78648;SDS011;67962;47.310;9.642;2024-03-22T11:27:18;1.50;;;0.77;;
78648;SDS011;67962;47.310;9.642;2024-03-22T11:29:45;2.42;;;1.10;;
78648;SDS011;67962;47.310;9.642;2024-03-22T11:32:12;3.22;;;1.13;;
78648;SDS011;67962;47.310;9.642;2024-03-22T11:34:38;3.40;;;0.93;;
78648;SDS011;67962;47.310;9.642;2024-03-22T11:37:06;3.67;;;1.10;;
78648;SDS011;67962;47.310;9.642;2024-03-22T11:39:38;3.38;;;1.00;;
78648;SDS011;67962;47.310;9.642;2024-03-22T11:42:04;3.25;;;1.05;;
78648;SDS011;67962;47.310;9.642;2024-03-22T11:44:36;3.90;;;1.00;;
78648;SDS011;67962;47.310;9.642;2024-03-22T11:47:04;4.57;;;0.80;;
78648;SDS011;67962;47.310;9.642;2024-03-22T11:49:29;2.22;;;0.90;;
78648;SDS011;67962;47.310;9.642;2024-03-22T11:51:56;2.88;;;0.88;;
78648;SDS011;67962;47.310;9.642;2024-03-22T11:54:22;1.70;;;0.90;;
78648;SDS011;67962;47.310;9.642;2024-03-22T11:56:48;0.93;;;0.60;;
78648;SDS011;67962;47.310;9.642;2024-03-22T11:59:14;1.95;;;0.80;;
78648;SDS011;67962;47.310;9.642;2024-03-22T12:01:44;4.00;;;0.80;;
78648;SDS011;67962;47.310;9.642;2024-03-22T12:04:09;1.55;;;0.82;;
78648;SDS011;67962;47.310;9.642;2024-03-22T12:06:41;6.00;;;0.70;;
78648;SDS011;67962;47.310;9.642;2024-03-22T12:09:10;3.65;;;0.80;;
78648;SDS011;67962;47.310;9.642;2024-03-22T12:11:37;2.70;;;0.80;;
78648;SDS011;67962;47.310;9.642;2024-03-22T12:14:04;1.40;;;0.90;;
78648;SDS011;67962;47.310;9.642;2024-03-22T12:16:30;2.85;;;0.98;;
78648;SDS011;67962;47.310;9.642;2024-03-22T12:18:55;3.75;;;0.88;;
78648;SDS011;67962;47.310;9.642;2024-03-22T12:21:21;1.73;;;0.90;;
78648;SDS011;67962;47.310;9.642;2024-03-22T12:23:47;2.60;;;1.00;;
78648;SDS011;67962;47.310;9.642;2024-03-22T12:26:12;2.38;;;0.98;;
78648;SDS011;67962;47.310;9.642;2024-03-22T12:28:38;2.95;;;1.20;;
78648;SDS011;67962;47.310;9.642;2024-03-22T12:31:04;3.20;;;1.05;;
78648;SDS011;67962;47.310;9.642;2024-03-22T12:33:30;2.72;;;0.80;;
78648;SDS011;67962;47.310;9.642;2024-03-22T12:35:56;2.70;;;1.40;;
78648;SDS011;67962;47.310;9.642;2024-03-22T12:38:21;2.85;;;1.00;;
78648;SDS011;67962;47.310;9.642;2024-03-22T12:40:47;3.00;;;1.20;;
78648;SDS011;67962;47.310;9.642;2024-03-22T12:43:14;4.18;;;1.45;;
78648;SDS011;67962;47.310;9.642;2024-03-22T12:45:39;4.32;;;1.35;;
78648;SDS011;67962;47.310;9.642;2024-03-22T12:48:06;3.45;;;1.00;;
78648;SDS011;67962;47.310;9.642;2024-03-22T12:50:32;2.88;;;1.60;;
78648;SDS011;67962;47.310;9.642;2024-03-22T12:52:58;4.40;;;2.78;;
78648;SDS011;67962;47.310;9.642;2024-03-22T12:55:24;2.53;;;1.40;;
78648;SDS011;67962;47.310;9.642;2024-03-22T12:57:51;3.80;;;1.38;;
78648;SDS011;67962;47.310;9.642;2024-03-22T13:00:16;3.05;;;1.50;;
78648;SDS011;67962;47.310;9.642;2024-03-22T13:02:45;2.80;;;1.48;;
78648;SDS011;67962;47.310;9.642;2024-03-22T13:05:11;2.00;;;1.48;;
78648;SDS011;67962;47.310;9.642;2024-03-22T13:07:37;3.38;;;1.83;;
78648;SDS011;67962;47.310;9.642;2024-03-22T13:10:04;3.20;;;1.58;;
78648;SDS011;67962;47.310;9.642;2024-03-22T13:12:30;2.22;;;1.33;;
78648;SDS011;67962;47.310;9.642;2024-03-22T13:14:56;2.28;;;1.15;;
78648;SDS011;67962;47.310;9.642;2024-03-22T13:17:22;5.28;;;1.20;;
78648;SDS011;67962;47.310;9.642;2024-03-22T13:19:48;2.88;;;1.20;;
78648;SDS011;67962;47.310;9.642;2024-03-22T13:22:15;4.10;;;1.30;;
78648;SDS011;67962;47.310;9.642;2024-03-22T13:24:46;3.55;;;1.50;;
78648;SDS011;67962;47.310;9.642;2024-03-22T13:27:13;4.80;;;1.13;;
78648;SDS011;67962;47.310;9.642;2024-03-22T13:29:39;4.25;;;1.30;;
78648;SDS011;67962;47.310;9.642;2024-03-22T13:32:05;6.90;;;1.65;;
78648;SDS011;67962;47.310;9.642;2024-03-22T13:34:33;3.03;;;1.27;;
78648;SDS011;67962;47.310;9.642;2024-03-22T13:37:02;2.22;;;0.80;;
78648;SDS011;67962;47.310;9.642;2024-03-22T13:39:28;2.05;;;0.90;;
78648;SDS011;67962;47.310;9.642;2024-03-22T13:41:57;2.00;;;1.17;;
78648;SDS011;67962;47.310;9.642;2024-03-22T13:44:23;1.80;;;1.00;;
78648;SDS011;67962;47.310;9.642;2024-03-22T13:46:52;1.63;;;0.85;;
78648;SDS011;67962;47.310;9.642;2024-03-22T13:49:18;3.25;;;1.00;;
78648;SDS011;67962;47.310;9.642;2024-03-22T13:51:46;3.78;;;0.88;;
78648;SDS011;67962;47.310;9.642;2024-03-22T13:54:13;2.20;;;1.05;;
78648;SDS011;67962;47.310;9.642;2024-03-22T13:56:39;2.78;;;1.00;;
78648;SDS011;67962;47.310;9.642;2024-03-22T13:59:05;2.47;;;1.40;;
78648;SDS011;67962;47.310;9.642;2024-03-22T14:01:34;4.72;;;1.05;;
78648;SDS011;67962;47.310;9.642;2024-03-22T14:04:01;2.80;;;1.17;;
78648;SDS011;67962;47.310;9.642;2024-03-22T14:06:28;3.85;;;1.17;;
78648;SDS011;67962;47.310;9.642;2024-03-22T14:08:55;3.47;;;1.13;;
78648;SDS011;67962;47.310;9.642;2024-03-22T14:11:25;2.85;;;1.40;;
78648;SDS011;67962;47.310;9.642;2024-03-22T14:13:55;2.83;;;1.20;;
78648;SDS011;67962;47.310;9.642;2024-03-22T14:16:24;1.35;;;0.90;;
78648;SDS011;67962;47.310;9.642;2024-03-22T14:18:50;2.50;;;1.10;;
78648;SDS011;67962;47.310;9.642;2024-03-22T14:21:16;4.00;;;1.10;;
78648;SDS011;67962;47.310;9.642;2024-03-22T14:23:48;3.63;;;1.70;;
78648;SDS011;67962;47.310;9.642;2024-03-22T14:26:15;2.40;;;1.25;;
78648;SDS011;67962;47.310;9.642;2024-03-22T14:28:41;4.53;;;1.10;;
78648;SDS011;67962;47.310;9.642;2024-03-22T14:31:07;5.72;;;1.20;;
78648;SDS011;67962;47.310;9.642;2024-03-22T14:33:34;2.55;;;1.25;;
78648;SDS011;67962;47.310;9.642;2024-03-22T14:36:01;2.90;;;1.30;;
78648;SDS011;67962;47.310;9.642;2024-03-22T14:38:27;2.95;;;1.65;;
78648;SDS011;67962;47.310;9.642;2024-03-22T14:40:53;2.00;;;1.02;;
78648;SDS011;67962;47.310;9.642;2024-03-22T14:43:20;2.67;;;1.30;;
78648;SDS011;67962;47.310;9.642;2024-03-22T14:45:46;1.88;;;1.20;;
78648;SDS011;67962;47.310;9.642;2024-03-22T14:48:12;3.15;;;1.20;;